Big Bear Station Historical Data
Daily Summary for May 20, 2019 Units:  English    Metric   Both
Next Day »
Daily Weekly Monthly Yearly Custom
  High: Low: Average:
Temperature: 48.2 °F 28.8 °F 36.9 °F
Dew Point: 40.2 °F 27.5 °F 32.9 °F
Humidity: 98% 62% 86%
Wind Speed: 8.9mph 0mph 1.6mph
Wind Gust: -999mph - -
Wind- - SSW
Pressure: 23.37 in 23.20 in -
Precipitation: 1.05 in    
Historical Graphs
 
 
Tabular Data for May 20, 2019
Time Temperature Dew Point Pressure Wind Wind Speed Wind Gust Humidity Rainfall Rate (Hourly)
00:11 31.8 °F 31 °F 23.23 in Calm   -999 mph 97% 0.00 in
00:27 31.6 °F 30.8 °F 23.23 in Calm   -999 mph 97% 0.00 in
00:42 31.5 °F 30.7 °F 23.23 in Calm   -999 mph 97% 0.00 in
00:57 31.6 °F 30.8 °F 23.23 in ENE 3.2 mph -999 mph 97% 0.00 in
01:12 31.6 °F 30.8 °F 23.22 in Calm   -999 mph 97% 0.00 in
01:27 31.5 °F 30.7 °F 23.22 in NNE 1.1 mph -999 mph 97% 0.00 in
01:43 31.5 °F 30.7 °F 23.22 in Calm   -999 mph 97% 0.00 in
01:58 31.3 °F 30.5 °F 23.22 in Calm   -999 mph 97% 0.00 in
02:13 30.9 °F 30.1 °F 23.22 in NW 1.1 mph -999 mph 97% 0.00 in
02:28 30.9 °F 30.1 °F 23.21 in Calm   -999 mph 97% 0.00 in
02:43 30.7 °F 29.9 °F 23.22 in Calm   -999 mph 97% 0.00 in
02:59 30.9 °F 30.1 °F 23.21 in Calm   -999 mph 97% 0.00 in
03:14 30.7 °F 30.2 °F 23.21 in Calm   -999 mph 98% 0.00 in
03:29 29.7 °F 28.2 °F 23.22 in Calm   -999 mph 94% 0.00 in
03:44 29.1 °F 28.1 °F 23.21 in Calm   -999 mph 96% 0.00 in
03:59 29.1 °F 27.8 °F 23.22 in Calm   -999 mph 95% 0.00 in
04:15 28.8 °F 27.5 °F 23.22 in ESE 1.7 mph -999 mph 95% 0.00 in
04:30 28.8 °F 27.8 °F 23.20 in Calm   -999 mph 96% 0.00 in
04:45 29.3 °F 28.6 °F 23.21 in Calm   -999 mph 97% 0.00 in
05:00 29.5 °F 28.8 °F 23.22 in SSW 1.1 mph -999 mph 97% 0.00 in
05:15 29.7 °F 29.2 °F 23.21 in Calm   -999 mph 98% 0.00 in
05:31 29.8 °F 29.1 °F 23.21 in Calm   -999 mph 97% 0.00 in
05:46 29.5 °F 28.8 °F 23.22 in Calm   -999 mph 97% 0.00 in
06:01 29.3 °F 28.3 °F 23.21 in Calm   -999 mph 96% 0.00 in
06:16 29.3 °F 27.5 °F 23.23 in Calm   -999 mph 93% 0.00 in
06:32 29.5 °F 28 °F 23.23 in Calm   -999 mph 94% 0.00 in
06:47 30.4 °F 28.9 °F 23.25 in Calm   -999 mph 94% 0.00 in
07:03 29.8 °F 28.3 °F 23.24 in Calm   -999 mph 94% 0.00 in
07:18 29.7 °F 27.9 °F 23.25 in Calm   -999 mph 93% 0.00 in
07:33 29.7 °F 27.7 °F 23.25 in Calm   -999 mph 92% 0.00 in
07:48 30.2 °F 27.9 °F 23.25 in Calm   -999 mph 91% 0.00 in
08:03 30.7 °F 27.8 °F 23.25 in Calm   -999 mph 89% 0.00 in
08:19 31.5 °F 28.9 °F 23.25 in Calm   -999 mph 90% 0.00 in
08:34 32 °F 28.8 °F 23.25 in Calm   -999 mph 88% 0.00 in
08:49 32.7 °F 29.5 °F 23.26 in Calm   -999 mph 88% 0.00 in
09:04 34 °F 30.5 °F 23.27 in Calm   -999 mph 87% 0.00 in
09:19 35.4 °F 30.8 °F 23.27 in Calm   -999 mph 83% 0.00 in
09:35 36 °F 31 °F 23.28 in Calm   -999 mph 82% 0.00 in
09:50 36.9 °F 32.5 °F 23.28 in Calm   -999 mph 84% 0.00 in
10:05 37 °F 31.7 °F 23.28 in Calm   -999 mph 81% 0.00 in
10:20 37.8 °F 32.2 °F 23.28 in Calm   -999 mph 80% 0.00 in
10:35 39.9 °F 33.6 °F 23.29 in Calm   -999 mph 78% 0.00 in
10:51 42.3 °F 34.3 °F 23.29 in Calm   -999 mph 73% 0.00 in
11:06 43 °F 35.3 °F 23.30 in Calm   -999 mph 74% 0.00 in
11:21 45.1 °F 36.3 °F 23.30 in Calm   -999 mph 71% 0.00 in
11:37 45.7 °F 35 °F 23.31 in SW 2.2 mph -999 mph 66% 0.00 in
11:52 48.2 °F 38.1 °F 23.31 in Calm   -999 mph 68% 0.00 in
12:07 47.1 °F 34.7 °F 23.31 in WNW 2.7 mph -999 mph 62% 0.00 in
12:23 45.5 °F 37 °F 23.31 in WNW 3.2 mph -999 mph 72% 0.00 in
12:38 45 °F 36.9 °F 23.32 in WNW 4.2 mph -999 mph 73% 0.00 in
12:53 44.4 °F 37.3 °F 23.32 in NE 2.2 mph -999 mph 76% 0.00 in
13:08 44.6 °F 36.8 °F 23.33 in NNE 6.3 mph -999 mph 74% 0.00 in
13:23 45 °F 38.2 °F 23.33 in WNW 4.2 mph -999 mph 77% 0.00 in
13:39 46 °F 40.2 °F 23.33 in NNW 3.2 mph -999 mph 80% 0.00 in
13:54 45.5 °F 39.4 °F 23.33 in NNE 2.2 mph -999 mph 79% 0.00 in
14:09 45.1 °F 38.3 °F 23.34 in North 4.7 mph -999 mph 77% 0.00 in
14:24 45.3 °F 38.2 °F 23.34 in SW 6.8 mph -999 mph 76% 0.00 in
14:39 46.4 °F 39.2 °F 23.33 in NW 3.7 mph -999 mph 76% 0.00 in
14:55 46.8 °F 39.3 °F 23.34 in SSW 2.7 mph -999 mph 75% 0.00 in
15:10 47.3 °F 38.4 °F 23.34 in NW 4.7 mph -999 mph 71% 0.00 in
15:25 47.3 °F 38 °F 23.34 in West 2.2 mph -999 mph 70% 0.00 in
15:41 47.1 °F 38.5 °F 23.35 in South 3.2 mph -999 mph 72% 0.00 in
15:56 45.7 °F 36.8 °F 23.35 in SE 3.7 mph -999 mph 71% 0.00 in
16:11 47.7 °F 39.1 °F 23.34 in NW 5.3 mph -999 mph 72% 0.00 in
16:27 46.6 °F 38.1 °F 23.35 in NNW 5.8 mph -999 mph 72% 0.00 in
16:42 45.3 °F 36.5 °F 23.35 in NNE 4.2 mph -999 mph 71% 0.00 in
16:58 47.8 °F 37.8 °F 23.35 in South 1.7 mph -999 mph 68% 0.00 in
17:13 46.6 °F 37.3 °F 23.35 in Calm   -999 mph 70% 0.00 in
17:28 43.2 °F 36.1 °F 23.35 in Calm   -999 mph 76% 0.00 in
17:43 41.4 °F 35.4 °F 23.35 in South 2.2 mph -999 mph 79% 0.00 in
17:58 41 °F 35.3 °F 23.35 in South 2.2 mph -999 mph 80% 0.00 in
18:14 41 °F 35 °F 23.35 in Calm   -999 mph 79% 0.00 in
18:29 39.2 °F 34.5 °F 23.35 in SW 2.7 mph -999 mph 83% 0.00 in
18:44 39.6 °F 35.2 °F 23.35 in Calm   -999 mph 84% 0.00 in
18:59 40.3 °F 35.5 °F 23.35 in Calm   -999 mph 83% 0.00 in
19:14 39.2 °F 34.8 °F 23.35 in Calm   -999 mph 84% 0.00 in
19:30 38.5 °F 34.7 °F 23.35 in NNE 2.7 mph -999 mph 86% 0.00 in
19:45 37.6 °F 34.4 °F 23.35 in WNW 4.7 mph -999 mph 88% 0.00 in
20:00 36.7 °F 33.5 °F 23.35 in NW 1.1 mph -999 mph 88% 0.00 in
20:16 36.1 °F 32.9 °F 23.35 in SE 2.2 mph -999 mph 88% 0.00 in
20:31 35.8 °F 32.9 °F 23.36 in WSW 2.7 mph -999 mph 89% 0.00 in
20:46 36.1 °F 33.7 °F 23.35 in Calm   -999 mph 91% 0.00 in
21:01 36 °F 33.6 °F 23.36 in SSW 2.2 mph -999 mph 91% 0.00 in
21:17 35.4 °F 33 °F 23.36 in ESE 4.2 mph -999 mph 91% 0.00 in
21:32 35.1 °F 32.7 °F 23.37 in ESE 2.7 mph -999 mph 91% 0.00 in
21:47 34.9 °F 32.8 °F 23.37 in ESE 2.2 mph -999 mph 92% 0.00 in
22:02 34.5 °F 32.7 °F 23.37 in South 4.7 mph -999 mph 93% 0.00 in
22:18 34.3 °F 32.5 °F 23.37 in West 1.7 mph -999 mph 93% 0.00 in
22:33 34.2 °F 32.7 °F 23.37 in Calm   -999 mph 94% 0.00 in
22:48 34.3 °F 33 °F 23.37 in North 2.2 mph -999 mph 95% 0.00 in
23:03 34 °F 32.5 °F 23.37 in Calm   -999 mph 94% 0.00 in
23:18 33.8 °F 32.3 °F 23.37 in ESE 2.7 mph -999 mph 94% 0.00 in
23:34 33.6 °F 32.3 °F 23.36 in ENE 8.9 mph -999 mph 95% 0.00 in
23:49 33.3 °F 32 °F 23.36 in NNW 7.3 mph -999 mph 95% 0.00 in
Big Bear CA Weather